Time;durP1;ratioP1;P1;durP2;ratioP2;P2;SDS_P1;SDS_P2;PMS_P1;PMS_P2;Temp;Humidity;BMP_temperature;BMP_pressure;BME280_temperature;BME280_humidity;BME280_pressure;Samples;Min_cycle;Max_cycle;Signal;HPM_P1;HPM_P2
2023/01/05 00:02:11;;;;;;;0.43;0.30;;;9.20;99.90;;;;;;5052272;28;20033;-41
2023/01/05 00:04:37;;;;;;;0.50;0.40;;;9.20;99.90;;;;;;5053398;28;20025;-41
2023/01/05 00:07:02;;;;;;;1.10;0.50;;;9.20;99.90;;;;;;5051628;28;20371;-37
2023/01/05 00:09:28;;;;;;;0.73;0.40;;;9.20;99.90;;;;;;5051626;28;20119;-42
2023/01/05 00:23:01;;;;;;;0.52;0.32;;;9.20;99.90;;;;;;5053159;28;20087;-39
2023/01/05 00:25:33;;;;;;;1.17;0.40;;;9.30;99.90;;;;;;5052394;28;20459;-38
2023/01/05 00:27:59;;;;;;;0.70;0.40;;;9.20;99.90;;;;;;5051290;28;20033;-38
2023/01/05 00:30:39;;;;;;;0.88;0.60;;;9.20;99.90;;;;;;5052871;28;20184;-39
2023/01/05 00:33:10;;;;;;;0.50;0.40;;;9.30;99.90;;;;;;5052442;28;20025;-41
2023/01/05 00:35:37;;;;;;;0.40;0.40;;;9.30;99.90;;;;;;5052398;28;20078;-44
2023/01/05 00:38:03;;;;;;;0.30;0.30;;;9.20;99.90;;;;;;5052324;28;20487;-37
2023/01/05 00:40:29;;;;;;;0.30;0.30;;;9.20;99.90;;;;;;5052314;28;20037;-42
2023/01/05 00:42:55;;;;;;;0.40;0.30;;;9.30;99.90;;;;;;5050895;28;20166;-44
2023/01/05 00:45:20;;;;;;;0.98;0.30;;;9.30;99.90;;;;;;5052039;28;20029;-44
2023/01/05 00:47:46;;;;;;;0.35;0.30;;;9.30;99.90;;;;;;5052347;28;20032;-43
2023/01/05 00:50:15;;;;;;;0.20;0.20;;;9.30;99.90;;;;;;5052687;28;20028;-37
2023/01/05 00:52:41;;;;;;;0.60;0.40;;;9.30;99.90;;;;;;5052214;28;20070;-43
2023/01/05 00:55:07;;;;;;;0.57;0.40;;;9.30;99.90;;;;;;5052252;28;20057;-37
2023/01/05 00:57:32;;;;;;;0.52;0.30;;;9.30;99.90;;;;;;5052213;28;20079;-43
2023/01/05 01:00:00;;;;;;;0.40;0.40;;;9.30;99.90;;;;;;5051989;28;20024;-41
2023/01/05 01:02:26;;;;;;;0.30;0.30;;;9.30;99.90;;;;;;5052078;28;20052;-38
2023/01/05 01:04:52;;;;;;;0.50;0.40;;;9.30;99.90;;;;;;5051606;28;20484;-39
2023/01/05 01:07:18;;;;;;;0.22;0.20;;;9.30;99.90;;;;;;5050094;28;20024;-37
2023/01/05 01:09:43;;;;;;;0.57;0.30;;;9.20;99.90;;;;;;5051653;28;20187;-40
2023/01/05 01:12:09;;;;;;;0.30;0.30;;;9.30;99.90;;;;;;5051771;28;20036;-40
2023/01/05 01:14:35;;;;;;;0.40;0.30;;;9.30;99.90;;;;;;5052242;28;20021;-39
2023/01/05 01:17:00;;;;;;;1.45;0.40;;;9.30;99.90;;;;;;5051412;28;22342;-38
2023/01/05 01:19:27;;;;;;;0.35;0.35;;;9.30;99.90;;;;;;5051761;28;20021;-39
2023/01/05 01:21:53;;;;;;;0.45;0.45;;;9.30;99.90;;;;;;5051722;28;20372;-41
2023/01/05 01:24:25;;;;;;;0.60;0.30;;;9.30;99.90;;;;;;5051352;28;20021;-36
2023/01/05 01:26:51;;;;;;;0.30;0.30;;;9.30;99.90;;;;;;5051531;28;20033;-39
2023/01/05 01:29:17;;;;;;;0.77;0.43;;;9.30;99.90;;;;;;5051443;28;20470;-43
2023/01/05 01:31:43;;;;;;;0.17;0.17;;;9.30;99.90;;;;;;5051556;28;20517;-44
2023/01/05 01:34:09;;;;;;;1.58;0.40;;;9.30;99.90;;;;;;5051499;28;20021;-38
2023/01/05 01:36:35;;;;;;;0.30;0.30;;;9.30;99.90;;;;;;5051378;28;20104;-37
2023/01/05 01:39:01;;;;;;;0.60;0.30;;;9.30;99.90;;;;;;5051883;28;20521;-43
2023/01/05 01:41:26;;;;;;;0.20;0.20;;;9.30;99.90;;;;;;5051446;28;20029;-43
2023/01/05 01:43:56;;;;;;;0.38;0.38;;;9.30;99.90;;;;;;5051485;28;20037;-41
2023/01/05 01:46:23;;;;;;;0.30;0.30;;;9.30;99.90;;;;;;5051483;28;20040;-43
2023/01/05 01:49:09;;;;;;;0.50;0.40;;;9.30;99.90;;;;;;5051398;28;20025;-44
2023/01/05 01:51:43;;;;;;;0.20;0.20;;;9.30;99.90;;;;;;5051129;28;20407;-36
2023/01/05 01:54:13;;;;;;;0.52;0.30;;;9.30;99.90;;;;;;5051188;28;20044;-42
2023/01/05 01:56:46;;;;;;;0.82;0.20;;;9.30;99.90;;;;;;5051253;28;20041;-43
2023/01/05 01:59:13;;;;;;;0.60;0.40;;;9.30;99.90;;;;;;5051060;28;20471;-41
2023/01/05 02:01:39;;;;;;;0.30;0.30;;;9.30;99.90;;;;;;5051141;28;20029;-43
2023/01/05 02:04:06;;;;;;;0.30;0.30;;;9.30;99.90;;;;;;5051024;28;20036;-40
2023/01/05 02:06:32;;;;;;;0.60;0.25;;;9.30;99.90;;;;;;5050857;28;20609;-43
2023/01/05 02:08:58;;;;;;;0.30;0.30;;;9.30;99.90;;;;;;5051058;28;20018;-43
2023/01/05 02:11:39;;;;;;;0.30;0.30;;;9.30;99.90;;;;;;5051341;28;20428;-39
2023/01/05 02:14:46;;;;;;;0.20;0.20;;;9.30;99.90;;;;;;5051279;28;20028;-39
2023/01/05 02:17:38;;;;;;;0.75;0.32;;;9.30;99.90;;;;;;5047999;28;20529;-44
2023/01/05 02:20:54;;;;;;;0.30;0.30;;;9.30;99.90;;;;;;5050123;28;20098;-36
2023/01/05 02:23:35;;;;;;;0.63;0.30;;;9.30;99.90;;;;;;5033102;28;20044;-42
2023/01/05 02:26:00;;;;;;;0.25;0.25;;;9.30;99.90;;;;;;5050830;28;20021;-41
2023/01/05 02:28:47;;;;;;;0.20;0.20;;;9.30;99.90;;;;;;5051183;28;20028;-39
2023/01/05 02:31:32;;;;;;;0.20;0.20;;;9.30;99.90;;;;;;5053369;28;20082;-37
2023/01/05 02:34:20;;;;;;;0.43;0.32;;;9.30;99.90;;;;;;5054949;28;20032;-44
2023/01/05 02:36:59;;;;;;;0.28;0.20;;;9.30;99.90;;;;;;5054433;28;20475;-39
2023/01/05 02:40:05;;;;;;;0.20;0.20;;;9.30;99.90;;;;;;5054739;28;20037;-43
2023/01/05 02:42:34;;;;;;;0.22;0.20;;;9.30;99.90;;;;;;5040372;28;20060;-44
2023/01/05 02:45:02;;;;;;;0.20;0.20;;;9.30;99.90;;;;;;5054642;28;20443;-39
2023/01/05 02:47:28;;;;;;;0.45;0.20;;;9.30;99.90;;;;;;5054305;28;20096;-43
2023/01/05 02:50:05;;;;;;;0.20;0.17;;;9.30;99.90;;;;;;5054564;28;20517;-41
2023/01/05 02:52:45;;;;;;;0.10;0.10;;;9.30;99.90;;;;;;5054521;28;20025;-38
2023/01/05 02:55:15;;;;;;;0.20;0.20;;;9.30;99.90;;;;;;5054110;28;20503;-40
2023/01/05 02:57:50;;;;;;;0.20;0.20;;;9.30;99.90;;;;;;5054786;28;20082;-43
2023/01/05 03:00:24;;;;;;;0.30;0.30;;;9.30;99.90;;;;;;5054118;28;20110;-39
2023/01/05 03:02:55;;;;;;;0.30;0.20;;;9.30;99.90;;;;;;5054077;28;20036;-37
2023/01/05 03:05:39;;;;;;;0.50;0.20;;;9.30;99.90;;;;;;5052660;28;20029;-39
2023/01/05 03:08:20;;;;;;;0.20;0.20;;;9.30;99.90;;;;;;5053924;28;20382;-38
2023/01/05 03:13:47;;;;;;;0.28;0.28;;;9.30;99.90;;;;;;5054533;28;20028;-44
2023/01/05 03:16:25;;;;;;;0.68;0.20;;;9.30;99.90;;;;;;5053550;28;20032;-36
2023/01/05 03:35:54;;;;;;;0.85;0.30;;;9.30;99.90;;;;;;5053613;28;20108;-41
2023/01/05 03:38:37;;;;;;;0.40;0.20;;;9.30;99.90;;;;;;5053332;28;20021;-40
2023/01/05 03:41:08;;;;;;;0.30;0.30;;;9.30;99.90;;;;;;5053305;28;20107;-37
2023/01/05 03:43:35;;;;;;;0.10;0.10;;;9.30;99.90;;;;;;5053307;28;20024;-43
2023/01/05 03:46:13;;;;;;;0.40;0.30;;;9.30;99.90;;;;;;5053314;28;20021;-41
2023/01/05 03:48:38;;;;;;;0.50;0.30;;;9.30;99.90;;;;;;5053171;28;20558;-35
2023/01/05 03:51:04;;;;;;;0.25;0.20;;;9.30;99.90;;;;;;5053295;28;20051;-44
2023/01/05 03:53:30;;;;;;;0.60;0.40;;;9.30;99.90;;;;;;5053063;28;20505;-40
2023/01/05 03:55:55;;;;;;;0.60;0.32;;;9.30;99.90;;;;;;5052729;28;20068;-42
2023/01/05 03:58:21;;;;;;;0.70;0.28;;;9.30;99.90;;;;;;5052771;28;20036;-43
2023/01/05 04:00:47;;;;;;;0.35;0.20;;;9.30;99.90;;;;;;5052926;28;20025;-42
2023/01/05 04:03:12;;;;;;;0.20;0.20;;;9.30;99.90;;;;;;5053546;28;20126;-41
2023/01/05 04:05:38;;;;;;;0.50;0.20;;;9.30;99.90;;;;;;5053061;28;20017;-39
2023/01/05 04:08:04;;;;;;;0.45;0.20;;;9.30;99.90;;;;;;5052597;28;20036;-41
2023/01/05 04:10:30;;;;;;;0.30;0.30;;;9.30;99.90;;;;;;5052968;28;20045;-42
2023/01/05 04:12:56;;;;;;;0.30;0.30;;;9.30;99.90;;;;;;5052986;28;20074;-44
2023/01/05 04:15:22;;;;;;;0.30;0.20;;;9.30;99.90;;;;;;5052698;28;20025;-43
2023/01/05 04:17:47;;;;;;;0.40;0.30;;;9.30;99.90;;;;;;5052618;28;20116;-42
2023/01/05 04:20:13;;;;;;;0.20;0.20;;;9.30;99.90;;;;;;5053093;28;20017;-43
2023/01/05 04:22:39;;;;;;;0.20;0.17;;;9.30;99.90;;;;;;5053040;28;20082;-41
2023/01/05 04:25:05;;;;;;;0.10;0.10;;;9.30;99.90;;;;;;5052758;28;20033;-40
2023/01/05 04:27:31;;;;;;;0.40;0.20;;;9.30;99.90;;;;;;5052615;28;20029;-42
2023/01/05 04:29:56;;;;;;;0.68;0.20;;;9.30;99.90;;;;;;5052995;28;20029;-42
2023/01/05 04:32:22;;;;;;;0.20;0.20;;;9.30;99.90;;;;;;5052827;28;20100;-40
2023/01/05 04:34:47;;;;;;;0.20;0.20;;;9.30;99.90;;;;;;5051689;28;20021;-41
2023/01/05 04:37:13;;;;;;;0.10;0.10;;;9.30;99.90;;;;;;5052528;28;20021;-43
2023/01/05 04:39:39;;;;;;;0.43;0.30;;;9.30;99.90;;;;;;5052831;28;20068;-39
2023/01/05 04:42:04;;;;;;;0.63;0.20;;;9.30;99.90;;;;;;5053189;28;20050;-38
2023/01/05 04:44:30;;;;;;;0.45;0.20;;;9.30;99.90;;;;;;5050758;28;20028;-40
2023/01/05 04:46:55;;;;;;;0.20;0.20;;;9.30;99.90;;;;;;5051847;28;20029;-43
2023/01/05 04:49:21;;;;;;;0.28;0.22;;;9.30;99.90;;;;;;5052036;28;20401;-43
2023/01/05 04:51:47;;;;;;;0.20;0.20;;;9.30;99.90;;;;;;5052030;28;20393;-44
2023/01/05 04:54:12;;;;;;;0.55;0.22;;;9.30;99.90;;;;;;5051518;28;20025;-37
2023/01/05 04:56:38;;;;;;;0.30;0.20;;;9.30;99.90;;;;;;5051936;28;20040;-43
2023/01/05 04:59:04;;;;;;;0.20;0.20;;;9.30;99.90;;;;;;5052001;28;20036;-43
2023/01/05 05:01:29;;;;;;;0.40;0.20;;;9.30;99.90;;;;;;5052096;28;20445;-42
2023/01/05 05:03:55;;;;;;;0.10;0.10;;;9.30;99.90;;;;;;5052389;28;20210;-38
2023/01/05 05:06:21;;;;;;;0.63;0.20;;;9.30;99.90;;;;;;5051438;28;20029;-42
2023/01/05 05:08:46;;;;;;;0.43;0.20;;;9.30;99.90;;;;;;5051580;28;20032;-37
2023/01/05 05:11:12;;;;;;;0.82;0.20;;;9.30;99.90;;;;;;5051904;28;20028;-43
2023/01/05 05:13:37;;;;;;;0.20;0.10;;;9.30;99.90;;;;;;5051718;28;20075;-41
2023/01/05 05:16:03;;;;;;;0.20;0.20;;;9.30;99.90;;;;;;5051401;28;20021;-40
2023/01/05 05:18:29;;;;;;;0.30;0.20;;;9.30;99.90;;;;;;5051744;28;20048;-39
2023/01/05 05:20:55;;;;;;;0.20;0.20;;;9.30;99.90;;;;;;5051730;28;20025;-43
2023/01/05 05:23:20;;;;;;;0.40;0.30;;;9.30;99.90;;;;;;5050976;28;20032;-43
2023/01/05 05:25:50;;;;;;;0.40;0.20;;;9.30;99.90;;;;;;5051351;28;20033;-43
2023/01/05 05:28:16;;;;;;;0.10;0.10;;;9.30;99.90;;;;;;5051260;28;20036;-39
2023/01/05 05:30:42;;;;;;;0.30;0.25;;;9.30;99.90;;;;;;5051404;28;20151;-44
2023/01/05 05:33:08;;;;;;;0.10;0.10;;;9.30;99.90;;;;;;5051592;28;20104;-41
2023/01/05 05:35:33;;;;;;;0.15;0.15;;;9.30;99.90;;;;;;5051387;28;20029;-38
2023/01/05 05:38:00;;;;;;;0.32;0.25;;;9.30;99.90;;;;;;5051396;28;20036;-42
2023/01/05 05:40:25;;;;;;;0.10;0.10;;;9.30;99.90;;;;;;5051297;28;20024;-42
2023/01/05 05:42:51;;;;;;;0.38;0.20;;;9.30;99.90;;;;;;5051186;28;20104;-44
2023/01/05 05:45:17;;;;;;;0.20;0.20;;;9.30;99.90;;;;;;5049791;28;20032;-43
2023/01/05 05:47:43;;;;;;;0.22;0.20;;;9.30;99.90;;;;;;5050916;28;20017;-42
2023/01/05 05:50:09;;;;;;;2.47;0.30;;;9.30;99.90;;;;;;5051375;28;20021;-39
2023/01/05 05:52:34;;;;;;;0.20;0.20;;;9.30;99.90;;;;;;5051079;28;20021;-41
2023/01/05 05:55:00;;;;;;;0.30;0.28;;;9.30;99.90;;;;;;5051330;28;20044;-44
2023/01/05 05:57:26;;;;;;;0.20;0.20;;;9.30;99.90;;;;;;5051208;28;20087;-43
2023/01/05 05:59:52;;;;;;;0.20;0.20;;;9.30;99.90;;;;;;5051105;28;20063;-35
2023/01/05 06:02:18;;;;;;;0.20;0.20;;;9.30;99.90;;;;;;5051041;28;20025;-39
2023/01/05 06:04:44;;;;;;;0.28;0.25;;;9.30;99.90;;;;;;5051108;28;20073;-41
2023/01/05 06:07:10;;;;;;;0.10;0.10;;;9.30;99.90;;;;;;5054366;28;20111;-44
2023/01/05 06:09:36;;;;;;;0.28;0.20;;;9.30;99.90;;;;;;5055601;28;20096;-42
2023/01/05 06:12:01;;;;;;;0.30;0.20;;;9.30;99.90;;;;;;5054169;28;20029;-42
2023/01/05 06:14:27;;;;;;;0.20;0.20;;;9.30;99.90;;;;;;5055036;28;20029;-38
2023/01/05 06:16:52;;;;;;;0.20;0.20;;;9.30;99.90;;;;;;5054707;28;20074;-43
2023/01/05 06:19:18;;;;;;;0.52;0.30;;;9.30;99.90;;;;;;5054930;28;20082;-36
2023/01/05 06:21:44;;;;;;;2.05;0.22;;;9.30;99.90;;;;;;5054830;28;20035;-40
2023/01/05 06:24:09;;;;;;;0.13;0.13;;;9.30;99.90;;;;;;5054806;28;20029;-34
2023/01/05 06:26:35;;;;;;;0.10;0.10;;;9.30;99.90;;;;;;5054567;28;20033;-41
2023/01/05 06:29:00;;;;;;;0.17;0.17;;;9.30;99.90;;;;;;5054633;28;20021;-40
2023/01/05 06:31:26;;;;;;;0.17;0.10;;;9.40;99.90;;;;;;5054664;28;20423;-42
2023/01/05 06:33:52;;;;;;;0.95;0.30;;;9.30;99.90;;;;;;5054763;28;20470;-39
2023/01/05 06:36:17;;;;;;;0.20;0.20;;;9.30;99.90;;;;;;5054379;28;20059;-41
2023/01/05 06:38:43;;;;;;;0.10;0.10;;;9.30;99.90;;;;;;5054414;28;20131;-40
2023/01/05 06:41:09;;;;;;;0.95;0.30;;;9.30;99.90;;;;;;5054430;28;20036;-41
2023/01/05 06:43:34;;;;;;;0.20;0.20;;;9.30;99.90;;;;;;5054551;28;20037;-41
2023/01/05 06:46:00;;;;;;;0.20;0.20;;;9.30;99.90;;;;;;5054252;28;20040;-43
2023/01/05 06:48:26;;;;;;;0.20;0.20;;;9.30;99.90;;;;;;5054607;28;20433;-43
2023/01/05 06:50:51;;;;;;;0.20;0.20;;;9.30;99.90;;;;;;5054304;28;20021;-40
2023/01/05 06:53:17;;;;;;;0.10;0.10;;;9.30;99.90;;;;;;5054284;28;20067;-43
2023/01/05 06:55:44;;;;;;;0.10;0.10;;;9.30;99.90;;;;;;5053956;28;20461;-36
2023/01/05 06:58:09;;;;;;;1.15;0.50;;;9.30;99.90;;;;;;5054157;28;20033;-41
2023/01/05 07:00:35;;;;;;;0.20;0.13;;;9.30;99.90;;;;;;5054304;28;20108;-42
2023/01/05 07:03:01;;;;;;;0.15;0.10;;;9.30;99.90;;;;;;5054460;28;20541;-38
2023/01/05 07:05:27;;;;;;;0.25;0.10;;;9.30;99.90;;;;;;5054366;28;20025;-38
2023/01/05 07:07:53;;;;;;;0.95;0.10;;;9.40;99.90;;;;;;5054136;28;20021;-36
2023/01/05 07:10:19;;;;;;;0.22;0.20;;;9.30;99.90;;;;;;5052724;28;20398;-41
2023/01/05 07:12:45;;;;;;;0.17;0.13;;;9.30;99.90;;;;;;5054066;28;20029;-39
2023/01/05 07:15:11;;;;;;;0.40;0.20;;;9.30;99.90;;;;;;5053918;28;20024;-37
2023/01/05 07:17:36;;;;;;;1.30;0.20;;;9.30;99.90;;;;;;5051718;28;20040;-43
2023/01/05 07:20:04;;;;;;;0.38;0.20;;;9.30;99.90;;;;;;5053813;28;20025;-41
2023/01/05 07:22:29;;;;;;;0.10;0.10;;;9.30;99.90;;;;;;5054089;28;20025;-37
2023/01/05 07:24:57;;;;;;;0.25;0.20;;;9.30;99.90;;;;;;5053715;28;20043;-44
2023/01/05 07:27:23;;;;;;;1.40;0.30;;;9.30;99.90;;;;;;5053420;28;20386;-40
2023/01/05 07:29:49;;;;;;;0.20;0.20;;;9.30;99.90;;;;;;5054075;28;20021;-43
2023/01/05 07:32:14;;;;;;;0.20;0.20;;;9.30;99.90;;;;;;5054071;28;20033;-41
2023/01/05 07:34:40;;;;;;;0.20;0.13;;;9.40;99.90;;;;;;5053561;28;20024;-44
2023/01/05 07:37:05;;;;;;;0.30;0.20;;;9.30;99.90;;;;;;5053162;28;20036;-43
2023/01/05 07:39:31;;;;;;;0.50;0.30;;;9.30;99.90;;;;;;5053805;28;20063;-40
2023/01/05 07:41:57;;;;;;;0.20;0.15;;;9.30;99.90;;;;;;5053749;28;20024;-39
2023/01/05 07:44:22;;;;;;;0.40;0.20;;;9.30;99.90;;;;;;5053337;28;20032;-39
2023/01/05 07:46:48;;;;;;;2.10;0.20;;;9.30;99.90;;;;;;5053092;28;20044;-41
2023/01/05 07:49:14;;;;;;;0.25;0.20;;;9.40;99.90;;;;;;5053216;28;20017;-37
2023/01/05 07:51:40;;;;;;;1.48;0.38;;;9.30;99.90;;;;;;5053264;28;20032;-43
2023/01/05 07:54:06;;;;;;;0.32;0.32;;;9.30;99.90;;;;;;5053666;28;20021;-40
2023/01/05 07:56:31;;;;;;;0.82;0.30;;;9.40;99.90;;;;;;5053104;28;20075;-39
2023/01/05 07:58:58;;;;;;;0.50;0.32;;;9.40;99.90;;;;;;5053572;28;20056;-41
2023/01/05 08:01:23;;;;;;;0.93;0.52;;;9.40;99.90;;;;;;5053825;28;20029;-39
2023/01/05 08:03:49;;;;;;;2.35;0.28;;;9.40;99.90;;;;;;5053233;28;20032;-38
2023/01/05 08:06:18;;;;;;;2.67;0.30;;;9.40;99.90;;;;;;5052710;28;20025;-34
2023/01/05 08:08:44;;;;;;;2.15;0.57;;;9.40;99.90;;;;;;5052808;28;20118;-41
2023/01/05 08:11:14;;;;;;;2.42;0.38;;;9.40;99.90;;;;;;5052854;28;20029;-43
2023/01/05 08:13:58;;;;;;;2.38;0.50;;;9.40;99.90;;;;;;5053224;28;20032;-43
2023/01/05 08:16:28;;;;;;;0.73;0.30;;;9.40;99.90;;;;;;5052527;28;20037;-42
2023/01/05 08:18:54;;;;;;;2.33;0.50;;;9.40;99.90;;;;;;5052549;28;20106;-40
2023/01/05 08:21:19;;;;;;;1.23;0.40;;;9.40;99.90;;;;;;5052580;28;20068;-42
2023/01/05 08:23:45;;;;;;;1.50;0.50;;;9.40;99.90;;;;;;5052671;28;20032;-44
2023/01/05 08:26:14;;;;;;;2.22;0.50;;;9.40;99.90;;;;;;5052247;28;20035;-42
2023/01/05 08:28:40;;;;;;;3.33;0.60;;;9.40;99.90;;;;;;5051963;28;20241;-43
2023/01/05 08:31:10;;;;;;;1.40;0.50;;;9.40;99.90;;;;;;5052779;28;20032;-37
2023/01/05 08:33:36;;;;;;;1.95;0.47;;;9.40;99.90;;;;;;5052269;28;20056;-37
2023/01/05 08:36:10;;;;;;;3.15;0.80;;;9.40;99.90;;;;;;5052106;28;20056;-41
2023/01/05 08:38:36;;;;;;;3.85;1.02;;;9.40;99.90;;;;;;5053521;28;20044;-42
2023/01/05 08:41:02;;;;;;;6.28;1.33;;;9.50;99.90;;;;;;5052309;28;20033;-43
2023/01/05 08:43:27;;;;;;;8.73;1.25;;;9.50;99.90;;;;;;5051303;28;20025;-42
2023/01/05 08:45:53;;;;;;;4.90;1.08;;;9.50;99.90;;;;;;5052190;28;20536;-43
2023/01/05 08:48:19;;;;;;;10.18;1.50;;;9.50;99.90;;;;;;5052738;28;20383;-43
2023/01/05 08:50:44;;;;;;;3.13;1.23;;;9.50;99.90;;;;;;5052077;28;20025;-43
2023/01/05 08:53:10;;;;;;;7.47;1.55;;;9.50;99.90;;;;;;5054232;28;20451;-43
2023/01/05 08:55:36;;;;;;;7.82;1.70;;;9.50;99.90;;;;;;5053419;28;20044;-43
2023/01/05 08:58:01;;;;;;;6.50;1.50;;;9.50;99.90;;;;;;5052215;28;20505;-40
2023/01/05 09:00:27;;;;;;;10.15;1.70;;;9.50;99.90;;;;;;5052052;28;20493;-41
2023/01/05 09:02:53;;;;;;;7.25;1.27;;;9.50;99.90;;;;;;5052236;28;20429;-43
2023/01/05 09:05:18;;;;;;;4.82;1.20;;;9.50;99.90;;;;;;5051769;28;20025;-42
2023/01/05 09:07:44;;;;;;;5.15;1.55;;;9.50;99.90;;;;;;5051740;28;20146;-40
2023/01/05 09:10:11;;;;;;;8.50;1.95;;;9.50;99.90;;;;;;5053156;28;20479;-43
2023/01/05 09:12:37;;;;;;;5.63;1.20;;;9.50;99.90;;;;;;5052466;28;20028;-43
2023/01/05 09:15:05;;;;;;;6.75;1.65;;;9.50;99.90;;;;;;5053553;28;20469;-43
2023/01/05 09:17:32;;;;;;;9.02;1.52;;;9.50;99.90;;;;;;5051227;28;20413;-42
2023/01/05 09:19:58;;;;;;;7.22;1.50;;;9.50;99.90;;;;;;5051597;28;20032;-40
2023/01/05 09:22:23;;;;;;;3.85;1.35;;;9.50;99.90;;;;;;5051500;28;20092;-41
2023/01/05 09:24:49;;;;;;;5.65;1.40;;;9.50;99.90;;;;;;5051479;28;20049;-41
2023/01/05 09:27:15;;;;;;;5.28;1.27;;;9.50;99.90;;;;;;5051703;28;20050;-42
2023/01/05 09:29:40;;;;;;;9.43;1.70;;;9.50;99.90;;;;;;5051307;28;20029;-40
2023/01/05 09:32:06;;;;;;;5.30;1.67;;;9.50;99.90;;;;;;5051410;28;20108;-41
2023/01/05 09:34:32;;;;;;;5.88;1.20;;;9.50;99.90;;;;;;5050019;28;20017;-44
2023/01/05 09:36:58;;;;;;;6.38;1.38;;;9.40;99.90;;;;;;5052542;28;20383;-41
2023/01/05 09:39:24;;;;;;;6.22;1.77;;;9.50;99.90;;;;;;5051388;28;20032;-42
2023/01/05 09:41:59;;;;;;;8.30;1.48;;;9.50;99.90;;;;;;5053915;28;20059;-43
2023/01/05 09:44:35;;;;;;;7.82;2.00;;;9.50;99.90;;;;;;5051717;28;20116;-43
2023/01/05 09:47:12;;;;;;;5.50;1.40;;;9.50;99.90;;;;;;5052247;28;20025;-42
2023/01/05 09:49:40;;;;;;;6.97;1.52;;;9.50;99.90;;;;;;5052292;28;20085;-44
2023/01/05 09:52:09;;;;;;;6.47;1.98;;;9.50;99.90;;;;;;5051727;28;20379;-42
2023/01/05 09:54:36;;;;;;;6.63;1.55;;;9.50;99.90;;;;;;5051839;28;20020;-40
2023/01/05 09:57:03;;;;;;;10.23;2.10;;;9.50;99.90;;;;;;5050779;28;20167;-45
2023/01/05 09:59:33;;;;;;;11.00;2.28;;;9.50;99.90;;;;;;5052801;28;20111;-42
2023/01/05 10:02:05;;;;;;;15.05;2.30;;;9.50;99.90;;;;;;5051515;28;20399;-44
2023/01/05 10:04:32;;;;;;;12.82;2.45;;;9.50;99.90;;;;;;5051058;28;20491;-45
2023/01/05 10:07:33;;;;;;;12.23;2.42;;;9.60;99.90;;;;;;5050979;28;20025;-41
2023/01/05 10:10:05;;;;;;;14.38;2.53;;;9.60;99.90;;;;;;5051041;28;20103;-45
2023/01/05 10:15:29;;;;;;;10.77;2.20;;;9.60;99.90;;;;;;5051186;28;20040;-44
2023/01/05 10:17:54;;;;;;;14.68;2.83;;;9.60;99.90;;;;;;5050878;28;20035;-42
2023/01/05 10:20:53;;;;;;;10.23;2.20;;;9.60;99.90;;;;;;5051250;28;20039;-42
2023/01/05 10:23:43;;;;;;;10.30;2.28;;;9.60;99.90;;;;;;5053148;28;20493;-45
2023/01/05 10:26:51;;;;;;;9.68;2.33;;;9.60;99.90;;;;;;5050896;28;20501;-40
2023/01/05 10:29:24;;;;;;;10.38;2.05;;;9.70;99.90;;;;;;5008896;28;20033;-42
2023/01/05 10:32:03;;;;;;;6.65;1.70;;;9.70;99.90;;;;;;5045997;28;20417;-42
2023/01/05 10:34:47;;;;;;;8.25;2.30;;;9.70;99.90;;;;;;5050652;28;20478;-42
2023/01/05 10:37:22;;;;;;;;;;;9.70;99.90;;;;;;5050926;28;20032;-42
2023/01/05 10:40:29;;;;;;;9.63;2.58;;;9.70;99.90;;;;;;5051103;28;19905;-44
2023/01/05 10:43:13;;;;;;;6.50;1.77;;;9.70;99.90;;;;;;5050603;28;20490;-44
2023/01/05 10:45:39;;;;;;;5.53;1.90;;;9.70;99.90;;;;;;5050587;28;20029;-44
2023/01/05 10:48:13;;;;;;;8.68;2.00;;;9.70;99.90;;;;;;5050824;28;20025;-41
2023/01/05 10:50:42;;;;;;;8.77;2.17;;;9.70;99.90;;;;;;5050755;28;20398;-44
2023/01/05 10:53:15;;;;;;;9.02;1.63;;;9.70;99.90;;;;;;5053814;28;20033;-42
2023/01/05 10:56:11;;;;;;;8.82;1.98;;;9.70;99.90;;;;;;5055672;28;20029;-44
2023/01/05 10:58:38;;;;;;;8.63;2.25;;;9.70;99.90;;;;;;5054243;28;20036;-44
2023/01/05 11:01:06;;;;;;;7.95;1.80;;;9.70;99.90;;;;;;5054098;28;20356;-43
2023/01/05 11:04:01;;;;;;;8.88;1.85;;;9.70;99.90;;;;;;5054346;28;20021;-42
2023/01/05 11:06:29;;;;;;;14.38;2.35;;;9.70;99.90;;;;;;5053864;28;20383;-44
2023/01/05 11:09:05;;;;;;;5.88;1.77;;;9.70;99.90;;;;;;5053998;28;20018;-43
2023/01/05 11:11:31;;;;;;;9.57;2.28;;;9.70;99.90;;;;;;5054462;28;20021;-44
2023/01/05 11:13:58;;;;;;;8.50;1.98;;;9.70;99.90;;;;;;5054316;28;20035;-42
2023/01/05 11:16:33;;;;;;;11.07;2.08;;;9.70;99.90;;;;;;5052626;28;20410;-43
2023/01/05 11:19:11;;;;;;;7.80;2.08;;;9.70;99.90;;;;;;5053772;28;20028;-44
2023/01/05 11:21:44;;;;;;;7.88;1.83;;;9.70;99.90;;;;;;5054091;28;20079;-44
2023/01/05 11:24:28;;;;;;;7.20;1.55;;;9.80;99.90;;;;;;5054067;28;20025;-44
2023/01/05 11:26:57;;;;;;;7.43;1.93;;;9.70;99.90;;;;;;5055061;28;20547;-44
2023/01/05 11:29:23;;;;;;;7.18;1.80;;;9.80;99.90;;;;;;5053570;28;20024;-44
2023/01/05 11:32:09;;;;;;;7.05;2.22;;;9.80;99.90;;;;;;5053554;28;20143;-44
2023/01/05 11:34:47;;;;;;;10.77;2.05;;;9.80;99.90;;;;;;5054406;28;20025;-45
2023/01/05 11:37:28;;;;;;;10.68;2.05;;;9.80;99.90;;;;;;5053280;28;20033;-41
2023/01/05 11:39:56;;;;;;;7.90;2.42;;;9.80;99.90;;;;;;5053364;28;20363;-45
2023/01/05 11:42:25;;;;;;;8.20;1.90;;;9.80;99.90;;;;;;5053414;28;20029;-42
2023/01/05 11:45:16;;;;;;;8.65;1.98;;;9.80;99.90;;;;;;5053280;28;20124;-44
2023/01/05 11:47:57;;;;;;;8.27;2.05;;;9.80;99.90;;;;;;5052921;28;20032;-44
2023/01/05 11:50:26;;;;;;;4.43;1.45;;;9.80;99.90;;;;;;5053277;28;20048;-44
2023/01/05 11:52:59;;;;;;;9.90;1.98;;;9.80;99.90;;;;;;5053154;28;20426;-41
2023/01/05 11:55:29;;;;;;;7.00;1.88;;;9.80;99.90;;;;;;5053139;28;20112;-42
2023/01/05 11:58:19;;;;;;;6.72;1.77;;;9.80;99.90;;;;;;5052684;28;20055;-43
2023/01/05 12:01:03;;;;;;;6.70;1.70;;;9.80;99.90;;;;;;5052720;28;20128;-45
2023/01/05 12:03:47;;;;;;;5.72;1.75;;;9.80;99.90;;;;;;5051857;28;20387;-45
2023/01/05 12:06:37;;;;;;;;;;;9.80;99.90;;;;;;5053179;28;20032;-39
2023/01/05 12:09:19;;;;;;;7.15;1.60;;;9.80;99.90;;;;;;5053510;28;19905;-45
2023/01/05 12:12:10;;;;;;;5.95;1.70;;;9.80;99.90;;;;;;5052988;28;20467;-44
2023/01/05 12:15:05;;;;;;;6.47;2.03;;;9.80;99.90;;;;;;5046826;28;20032;-43
2023/01/05 12:18:07;;;;;;;7.00;1.60;;;9.80;99.90;;;;;;5053796;28;20049;-44
2023/01/05 12:21:05;;;;;;;5.82;1.55;;;9.80;99.90;;;;;;5053255;28;20062;-44
2023/01/05 12:24:33;;;;;;;6.47;1.70;;;9.80;99.90;;;;;;5052947;28;20037;-42
2023/01/05 12:27:35;;;;;;;12.20;2.33;;;9.80;99.90;;;;;;5027010;28;20077;-43
2023/01/05 12:30:04;;;;;;;15.30;2.75;;;9.80;99.90;;;;;;5052516;28;20029;-41
2023/01/05 12:32:32;;;;;;;13.75;2.83;;;9.80;99.90;;;;;;5052778;28;20032;-43
2023/01/05 12:35:17;;;;;;;17.23;3.03;;;9.80;99.90;;;;;;5055702;28;20025;-44
2023/01/05 12:37:59;;;;;;;17.50;2.92;;;9.80;99.90;;;;;;5052028;28;20083;-43
2023/01/05 12:40:40;;;;;;;18.60;3.15;;;9.80;99.90;;;;;;5053729;28;20032;-44
2023/01/05 12:43:19;;;;;;;16.92;2.72;;;9.80;99.90;;;;;;5053060;28;20029;-44
2023/01/05 12:46:10;;;;;;;15.23;2.92;;;9.80;99.90;;;;;;5051951;28;20112;-43
2023/01/05 12:49:09;;;;;;;13.07;2.30;;;9.80;99.90;;;;;;5052087;28;20023;-43
2023/01/05 12:51:44;;;;;;;15.35;2.70;;;9.80;99.90;;;;;;5044383;28;20029;-42
2023/01/05 12:54:28;;;;;;;13.15;2.63;;;9.70;99.90;;;;;;5051970;28;20021;-43
2023/01/05 12:57:03;;;;;;;20.10;3.10;;;9.80;99.90;;;;;;5051670;28;20033;-44
2023/01/05 12:59:43;;;;;;;18.65;3.10;;;9.70;99.90;;;;;;5051967;28;20256;-42
2023/01/05 13:02:34;;;;;;;15.52;2.78;;;9.70;99.90;;;;;;5052351;28;20138;-42
2023/01/05 13:05:14;;;;;;;16.02;3.15;;;9.80;99.90;;;;;;5055428;28;20028;-43
2023/01/05 13:08:28;;;;;;;15.13;2.88;;;9.80;99.90;;;;;;5051614;28;20070;-43
2023/01/05 13:10:55;;;;;;;13.35;3.13;;;9.70;99.90;;;;;;5046926;28;20063;-43
2023/01/05 13:13:41;;;;;;;12.95;2.50;;;9.80;99.90;;;;;;5051615;28;20029;-42
2023/01/05 13:16:07;;;;;;;11.73;2.90;;;9.80;99.90;;;;;;5051162;28;20206;-39
2023/01/05 13:18:37;;;;;;;14.15;2.85;;;9.80;99.90;;;;;;5052467;28;20143;-42
2023/01/05 13:21:04;;;;;;;13.18;2.50;;;9.80;99.90;;;;;;5051693;28;20104;-42
2023/01/05 13:23:35;;;;;;;12.05;2.15;;;9.70;99.90;;;;;;5051446;28;20033;-43
2023/01/05 13:26:13;;;;;;;15.70;2.72;;;9.70;99.90;;;;;;5051189;28;20029;-43
2023/01/05 13:28:38;;;;;;;12.18;2.20;;;9.80;99.90;;;;;;5051526;28;20391;-42
2023/01/05 13:31:35;;;;;;;10.88;2.58;;;9.80;99.90;;;;;;5051459;28;20483;-44
2023/01/05 13:34:03;;;;;;;14.55;2.42;;;9.80;99.90;;;;;;5051387;28;20020;-43
2023/01/05 13:37:00;;;;;;;9.52;2.15;;;9.70;99.90;;;;;;5051861;28;20021;-44
2023/01/05 13:39:55;;;;;;;10.32;2.80;;;9.70;99.90;;;;;;5050973;28;20127;-44
2023/01/05 13:43:04;;;;;;;11.60;2.47;;;9.70;99.90;;;;;;5050222;28;20080;-42
2023/01/05 13:45:58;;;;;;;10.15;2.13;;;9.70;99.90;;;;;;5051927;28;20029;-42
2023/01/05 13:48:27;;;;;;;9.52;2.33;;;9.70;99.90;;;;;;5051072;28;20021;-43
2023/01/05 13:51:22;;;;;;;11.10;2.40;;;9.70;99.90;;;;;;5053406;28;20086;-41
2023/01/05 13:53:50;;;;;;;10.25;2.47;;;9.80;99.90;;;;;;5051239;28;20100;-43